sensor_id;sensor_type;location;lat;lon;timestamp;pressure;altitude;pressure_sealevel;temperature;humidity
69796;BME280;57073;45.650;9.612;2023-07-02T00:00:19;98539.59;;;22.39;57.47
69796;BME280;57073;45.650;9.612;2023-07-02T00:05:20;98539.75;;;22.42;56.07
69796;BME280;57073;45.650;9.612;2023-07-02T00:10:21;98540.13;;;22.32;57.06
69796;BME280;57073;45.650;9.612;2023-07-02T00:15:21;98531.09;;;22.23;57.66
69796;BME280;57073;45.650;9.612;2023-07-02T00:20:21;98538.06;;;22.29;57.07
69796;BME280;57073;45.650;9.612;2023-07-02T00:25:22;98533.19;;;22.35;56.39
69796;BME280;57073;45.650;9.612;2023-07-02T00:30:22;98534.50;;;22.29;56.66
69796;BME280;57073;45.650;9.612;2023-07-02T00:35:22;98538.41;;;22.19;56.96
69796;BME280;57073;45.650;9.612;2023-07-02T00:40:23;98528.28;;;22.11;57.96
69796;BME280;57073;45.650;9.612;2023-07-02T00:45:23;98537.47;;;22.15;58.99
69796;BME280;57073;45.650;9.612;2023-07-02T00:50:27;98542.22;;;22.05;58.70
69796;BME280;57073;45.650;9.612;2023-07-02T00:55:27;98536.59;;;22.02;59.86
69796;BME280;57073;45.650;9.612;2023-07-02T01:00:28;98540.59;;;22.04;59.62
69796;BME280;57073;45.650;9.612;2023-07-02T01:05:28;98539.13;;;22.07;59.57
69796;BME280;57073;45.650;9.612;2023-07-02T01:10:47;98534.63;;;22.02;59.05
69796;BME280;57073;45.650;9.612;2023-07-02T01:15:48;98531.97;;;21.85;59.92
69796;BME280;57073;45.650;9.612;2023-07-02T01:20:49;98533.13;;;21.84;59.62
69796;BME280;57073;45.650;9.612;2023-07-02T01:25:51;98529.91;;;21.82;59.58
69796;BME280;57073;45.650;9.612;2023-07-02T01:30:51;98536.22;;;21.74;59.44
69796;BME280;57073;45.650;9.612;2023-07-02T01:35:52;98515.97;;;21.87;57.93
69796;BME280;57073;45.650;9.612;2023-07-02T01:40:52;98521.00;;;21.85;58.19
69796;BME280;57073;45.650;9.612;2023-07-02T01:45:53;98522.66;;;21.77;60.00
69796;BME280;57073;45.650;9.612;2023-07-02T01:50:53;98520.41;;;21.71;59.94
69796;BME280;57073;45.650;9.612;2023-07-02T01:55:53;98519.78;;;21.65;60.08
69796;BME280;57073;45.650;9.612;2023-07-02T02:00:54;98538.22;;;21.64;58.68
69796;BME280;57073;45.650;9.612;2023-07-02T02:05:54;98534.22;;;21.53;59.43
69796;BME280;57073;45.650;9.612;2023-07-02T02:10:55;98523.72;;;21.46;59.28
69796;BME280;57073;45.650;9.612;2023-07-02T02:15:55;98526.63;;;21.41;58.96
69796;BME280;57073;45.650;9.612;2023-07-02T02:20:55;98537.13;;;21.39;59.06
69796;BME280;57073;45.650;9.612;2023-07-02T02:25:56;98533.28;;;21.32;59.54
69796;BME280;57073;45.650;9.612;2023-07-02T02:30:56;98527.97;;;21.26;59.56
69796;BME280;57073;45.650;9.612;2023-07-02T02:35:57;98531.19;;;21.28;59.40
69796;BME280;57073;45.650;9.612;2023-07-02T02:40:57;98537.00;;;21.27;59.51
69796;BME280;57073;45.650;9.612;2023-07-02T02:45:57;98531.34;;;21.23;60.01
69796;BME280;57073;45.650;9.612;2023-07-02T02:50:58;98527.66;;;21.19;60.20
69796;BME280;57073;45.650;9.612;2023-07-02T02:55:59;98531.53;;;21.18;60.13
69796;BME280;57073;45.650;9.612;2023-07-02T03:00:59;98533.78;;;21.16;59.81
69796;BME280;57073;45.650;9.612;2023-07-02T03:06:00;98548.66;;;21.15;59.88
69796;BME280;57073;45.650;9.612;2023-07-02T03:11:00;98533.97;;;21.11;60.86
69796;BME280;57073;45.650;9.612;2023-07-02T03:16:00;98535.59;;;21.03;60.30
69796;BME280;57073;45.650;9.612;2023-07-02T03:21:01;98545.91;;;21.06;59.81
69796;BME280;57073;45.650;9.612;2023-07-02T03:26:01;98533.38;;;20.88;60.59
69796;BME280;57073;45.650;9.612;2023-07-02T03:31:01;98542.38;;;20.88;60.82
69796;BME280;57073;45.650;9.612;2023-07-02T03:36:02;98548.03;;;20.83;60.68
69796;BME280;57073;45.650;9.612;2023-07-02T03:41:02;98558.97;;;20.66;61.50
69796;BME280;57073;45.650;9.612;2023-07-02T03:46:03;98566.25;;;20.88;60.67
69796;BME280;57073;45.650;9.612;2023-07-02T03:51:03;98566.56;;;20.86;61.29
69796;BME280;57073;45.650;9.612;2023-07-02T03:56:04;98573.84;;;20.82;61.77
69796;BME280;57073;45.650;9.612;2023-07-02T04:01:04;98572.50;;;20.71;61.51
69796;BME280;57073;45.650;9.612;2023-07-02T04:06:04;98581.84;;;20.79;61.39
69796;BME280;57073;45.650;9.612;2023-07-02T04:11:08;98588.00;;;21.02;60.68
69796;BME280;57073;45.650;9.612;2023-07-02T04:16:08;98592.34;;;21.20;60.27
69796;BME280;57073;45.650;9.612;2023-07-02T04:21:08;98593.41;;;21.63;58.92
69796;BME280;57073;45.650;9.612;2023-07-02T04:26:09;98595.78;;;22.12;57.10
69796;BME280;57073;45.650;9.612;2023-07-02T04:31:10;98594.94;;;22.71;55.81
69796;BME280;57073;45.650;9.612;2023-07-02T04:36:10;98602.25;;;22.67;56.25
69796;BME280;57073;45.650;9.612;2023-07-02T04:41:12;98610.13;;;23.52;54.82
69796;BME280;57073;45.650;9.612;2023-07-02T04:46:12;98603.31;;;23.95;52.91
69796;BME280;57073;45.650;9.612;2023-07-02T04:51:13;98615.06;;;24.42;52.65
69796;BME280;57073;45.650;9.612;2023-07-02T04:56:14;98613.63;;;23.86;53.69
69796;BME280;57073;45.650;9.612;2023-07-02T05:01:14;98607.47;;;23.89;54.02
69796;BME280;57073;45.650;9.612;2023-07-02T05:06:15;98608.34;;;23.69;54.06
69796;BME280;57073;45.650;9.612;2023-07-02T05:11:15;98609.28;;;24.10;53.07
69796;BME280;57073;45.650;9.612;2023-07-02T05:16:16;98624.16;;;24.95;51.97
69796;BME280;57073;45.650;9.612;2023-07-02T05:21:17;98614.44;;;24.61;51.76
69796;BME280;57073;45.650;9.612;2023-07-02T05:26:18;98629.97;;;24.65;52.54
69796;BME280;57073;45.650;9.612;2023-07-02T05:31:18;98632.16;;;25.13;52.08
69796;BME280;57073;45.650;9.612;2023-07-02T05:36:19;98628.66;;;24.75;52.32
69796;BME280;57073;45.650;9.612;2023-07-02T05:41:21;98628.78;;;24.91;52.48
69796;BME280;57073;45.650;9.612;2023-07-02T05:46:21;98620.22;;;25.08;51.78
69796;BME280;57073;45.650;9.612;2023-07-02T05:51:25;98622.13;;;25.20;51.70
69796;BME280;57073;45.650;9.612;2023-07-02T05:56:25;98624.75;;;25.57;50.82
69796;BME280;57073;45.650;9.612;2023-07-02T06:01:26;98629.22;;;25.78;50.15
69796;BME280;57073;45.650;9.612;2023-07-02T06:06:26;98639.47;;;25.77;50.96
69796;BME280;57073;45.650;9.612;2023-07-02T06:11:27;98633.78;;;26.34;49.93
69796;BME280;57073;45.650;9.612;2023-07-02T06:16:27;98645.34;;;26.08;49.44
69796;BME280;57073;45.650;9.612;2023-07-02T06:21:27;98646.06;;;25.89;50.07
69796;BME280;57073;45.650;9.612;2023-07-02T06:26:29;98658.31;;;26.19;49.39
69796;BME280;57073;45.650;9.612;2023-07-02T06:31:31;98664.97;;;26.18;49.49
69796;BME280;57073;45.650;9.612;2023-07-02T06:36:31;98670.31;;;26.43;49.14
69796;BME280;57073;45.650;9.612;2023-07-02T06:41:32;98671.44;;;26.74;48.94
69796;BME280;57073;45.650;9.612;2023-07-02T06:46:32;98672.47;;;26.50;48.49
69796;BME280;57073;45.650;9.612;2023-07-02T06:51:32;98668.44;;;26.98;47.50
69796;BME280;57073;45.650;9.612;2023-07-02T06:56:34;98663.03;;;27.41;47.92
69796;BME280;57073;45.650;9.612;2023-07-02T07:01:34;98669.13;;;27.50;46.74
69796;BME280;57073;45.650;9.612;2023-07-02T07:06:36;98663.28;;;27.75;45.91
69796;BME280;57073;45.650;9.612;2023-07-02T07:11:37;98670.03;;;27.97;44.95
69796;BME280;57073;45.650;9.612;2023-07-02T07:16:37;98665.75;;;26.83;44.74
69796;BME280;57073;45.650;9.612;2023-07-02T07:21:38;98667.56;;;27.72;44.41
69796;BME280;57073;45.650;9.612;2023-07-02T07:26:40;98674.94;;;28.30;45.40
69796;BME280;57073;45.650;9.612;2023-07-02T07:31:40;98679.56;;;28.00;43.68
69796;BME280;57073;45.650;9.612;2023-07-02T07:36:40;98679.38;;;28.12;44.61
69796;BME280;57073;45.650;9.612;2023-07-02T07:41:41;98671.72;;;27.82;43.98
69796;BME280;57073;45.650;9.612;2023-07-02T07:46:41;98678.28;;;27.74;45.99
69796;BME280;57073;45.650;9.612;2023-07-02T07:51:42;98680.06;;;27.63;45.45
69796;BME280;57073;45.650;9.612;2023-07-02T07:56:42;98674.03;;;27.37;45.32
69796;BME280;57073;45.650;9.612;2023-07-02T08:01:42;98670.69;;;27.48;45.31
69796;BME280;57073;45.650;9.612;2023-07-02T08:06:43;98677.50;;;26.63;47.22
69796;BME280;57073;45.650;9.612;2023-07-02T08:11:43;98682.66;;;26.97;46.82
69796;BME280;57073;45.650;9.612;2023-07-02T08:16:44;98691.38;;;26.99;46.06
69796;BME280;57073;45.650;9.612;2023-07-02T08:21:45;98688.63;;;26.99;45.57
69796;BME280;57073;45.650;9.612;2023-07-02T08:26:45;98689.53;;;26.87;46.78
69796;BME280;57073;45.650;9.612;2023-07-02T08:31:46;98686.06;;;26.90;47.39
69796;BME280;57073;45.650;9.612;2023-07-02T08:36:47;98693.56;;;26.90;47.69
69796;BME280;57073;45.650;9.612;2023-07-02T08:41:48;98688.91;;;26.94;46.10
69796;BME280;57073;45.650;9.612;2023-07-02T08:46:49;98697.00;;;27.03;46.84
69796;BME280;57073;45.650;9.612;2023-07-02T08:51:51;98687.50;;;27.04;46.20
69796;BME280;57073;45.650;9.612;2023-07-02T08:56:51;98695.97;;;27.11;45.96
69796;BME280;57073;45.650;9.612;2023-07-02T09:01:52;98699.03;;;27.06;46.40
69796;BME280;57073;45.650;9.612;2023-07-02T09:12:06;98697.03;;;27.42;46.77
69796;BME280;57073;45.650;9.612;2023-07-02T09:17:08;98705.19;;;27.73;45.00
69796;BME280;57073;45.650;9.612;2023-07-02T09:22:11;98687.19;;;27.64;44.32
69796;BME280;57073;45.650;9.612;2023-07-02T09:27:11;98697.19;;;27.49;43.58
69796;BME280;57073;45.650;9.612;2023-07-02T09:32:12;98691.91;;;27.24;45.23
69796;BME280;57073;45.650;9.612;2023-07-02T09:37:12;98689.22;;;27.28;45.52
69796;BME280;57073;45.650;9.612;2023-07-02T09:42:14;98686.75;;;27.23;45.23
69796;BME280;57073;45.650;9.612;2023-07-02T09:47:17;98684.19;;;27.53;44.45
69796;BME280;57073;45.650;9.612;2023-07-02T09:52:18;98686.50;;;27.90;44.88
69796;BME280;57073;45.650;9.612;2023-07-02T09:57:19;98680.53;;;27.88;43.72
69796;BME280;57073;45.650;9.612;2023-07-02T10:02:20;98674.38;;;27.98;44.31
69796;BME280;57073;45.650;9.612;2023-07-02T10:07:28;98684.75;;;28.24;43.11
69796;BME280;57073;45.650;9.612;2023-07-02T10:12:29;98690.34;;;28.51;43.75
69796;BME280;57073;45.650;9.612;2023-07-02T10:17:34;98674.28;;;28.64;43.20
69796;BME280;57073;45.650;9.612;2023-07-02T10:22:46;98677.44;;;28.92;43.24
69796;BME280;57073;45.650;9.612;2023-07-02T10:27:47;98676.97;;;28.87;40.94
69796;BME280;57073;45.650;9.612;2023-07-02T10:32:48;98665.78;;;28.80;40.16
69796;BME280;57073;45.650;9.612;2023-07-02T10:37:48;98670.31;;;28.91;41.11
69796;BME280;57073;45.650;9.612;2023-07-02T10:42:50;98662.63;;;29.08;41.09
69796;BME280;57073;45.650;9.612;2023-07-02T10:47:51;98666.06;;;29.01;41.06
69796;BME280;57073;45.650;9.612;2023-07-02T10:52:53;98660.81;;;28.92;41.11
69796;BME280;57073;45.650;9.612;2023-07-02T10:58:07;98652.75;;;28.53;40.55
69796;BME280;57073;45.650;9.612;2023-07-02T11:03:16;98647.94;;;28.50;41.48
69796;BME280;57073;45.650;9.612;2023-07-02T11:08:18;98652.72;;;28.80;40.91
69796;BME280;57073;45.650;9.612;2023-07-02T11:13:19;98646.34;;;28.49;39.43
69796;BME280;57073;45.650;9.612;2023-07-02T11:18:20;98656.09;;;28.66;40.30
69796;BME280;57073;45.650;9.612;2023-07-02T11:23:23;98642.59;;;28.65;40.89
69796;BME280;57073;45.650;9.612;2023-07-02T11:28:24;98646.75;;;28.78;40.24
69796;BME280;57073;45.650;9.612;2023-07-02T11:33:39;98650.56;;;28.43;39.38
69796;BME280;57073;45.650;9.612;2023-07-02T11:38:39;98649.97;;;28.53;39.56
69796;BME280;57073;45.650;9.612;2023-07-02T11:43:40;98640.97;;;28.60;40.13
69796;BME280;57073;45.650;9.612;2023-07-02T11:48:40;98646.41;;;28.83;40.52
69796;BME280;57073;45.650;9.612;2023-07-02T11:53:40;98644.38;;;28.77;40.49
69796;BME280;57073;45.650;9.612;2023-07-02T11:58:42;98642.25;;;28.97;40.76
69796;BME280;57073;45.650;9.612;2023-07-02T12:03:44;98635.00;;;28.88;39.59
69796;BME280;57073;45.650;9.612;2023-07-02T12:08:44;98639.25;;;29.09;39.90
69796;BME280;57073;45.650;9.612;2023-07-02T12:13:44;98644.47;;;29.14;40.14
69796;BME280;57073;45.650;9.612;2023-07-02T12:18:45;98644.94;;;28.89;39.10
69796;BME280;57073;45.650;9.612;2023-07-02T12:23:45;98634.94;;;28.85;39.53
69796;BME280;57073;45.650;9.612;2023-07-02T12:28:46;98634.56;;;28.86;38.66
69796;BME280;57073;45.650;9.612;2023-07-02T12:33:46;98636.38;;;29.02;39.85
69796;BME280;57073;45.650;9.612;2023-07-02T12:38:47;98638.88;;;28.80;39.13
69796;BME280;57073;45.650;9.612;2023-07-02T12:43:47;98635.94;;;29.00;38.90
69796;BME280;57073;45.650;9.612;2023-07-02T12:48:47;98635.38;;;28.87;39.10
69796;BME280;57073;45.650;9.612;2023-07-02T12:53:48;98633.72;;;28.82;38.86
69796;BME280;57073;45.650;9.612;2023-07-02T12:58:48;98625.41;;;28.82;40.06
69796;BME280;57073;45.650;9.612;2023-07-02T13:03:51;98611.88;;;28.77;39.35
69796;BME280;57073;45.650;9.612;2023-07-02T13:08:51;98616.69;;;28.53;39.30
69796;BME280;57073;45.650;9.612;2023-07-02T13:13:52;98607.22;;;28.58;39.72
69796;BME280;57073;45.650;9.612;2023-07-02T13:18:53;98609.97;;;28.55;39.27
69796;BME280;57073;45.650;9.612;2023-07-02T13:23:55;98615.75;;;28.72;39.84
69796;BME280;57073;45.650;9.612;2023-07-02T13:28:56;98613.94;;;28.84;38.61
69796;BME280;57073;45.650;9.612;2023-07-02T13:33:56;98629.06;;;28.90;39.28
69796;BME280;57073;45.650;9.612;2023-07-02T13:38:57;98620.84;;;28.97;39.33
69796;BME280;57073;45.650;9.612;2023-07-02T13:43:57;98611.34;;;28.98;38.98
69796;BME280;57073;45.650;9.612;2023-07-02T13:48:58;98618.22;;;29.08;39.28
69796;BME280;57073;45.650;9.612;2023-07-02T13:53:58;98611.75;;;29.00;39.21
69796;BME280;57073;45.650;9.612;2023-07-02T14:04:00;98606.13;;;28.93;38.70
69796;BME280;57073;45.650;9.612;2023-07-02T14:09:01;98610.09;;;28.96;39.21
69796;BME280;57073;45.650;9.612;2023-07-02T14:14:01;98611.06;;;29.07;38.68
69796;BME280;57073;45.650;9.612;2023-07-02T14:19:02;98605.66;;;28.87;37.79
69796;BME280;57073;45.650;9.612;2023-07-02T14:24:02;98602.56;;;28.96;39.03
69796;BME280;57073;45.650;9.612;2023-07-02T14:29:04;98596.38;;;28.76;38.34
69796;BME280;57073;45.650;9.612;2023-07-02T14:34:04;98590.63;;;28.62;38.17
69796;BME280;57073;45.650;9.612;2023-07-02T14:39:05;98593.00;;;28.60;38.17
69796;BME280;57073;45.650;9.612;2023-07-02T14:44:05;98580.66;;;28.30;38.25
69796;BME280;57073;45.650;9.612;2023-07-02T14:49:05;98586.31;;;28.38;38.61
69796;BME280;57073;45.650;9.612;2023-07-02T14:54:07;98582.66;;;28.57;38.87
69796;BME280;57073;45.650;9.612;2023-07-02T14:59:07;98579.13;;;28.60;38.79
69796;BME280;57073;45.650;9.612;2023-07-02T15:04:09;98584.50;;;28.76;38.76
69796;BME280;57073;45.650;9.612;2023-07-02T15:09:09;98580.09;;;28.71;38.77
69796;BME280;57073;45.650;9.612;2023-07-02T15:14:10;98572.38;;;28.57;37.79
69796;BME280;57073;45.650;9.612;2023-07-02T15:19:10;98570.84;;;28.63;37.98
69796;BME280;57073;45.650;9.612;2023-07-02T15:24:12;98583.84;;;28.56;38.03
69796;BME280;57073;45.650;9.612;2023-07-02T15:29:13;98565.63;;;28.55;37.69
69796;BME280;57073;45.650;9.612;2023-07-02T15:34:14;98569.41;;;28.46;38.15
69796;BME280;57073;45.650;9.612;2023-07-02T15:39:19;98579.19;;;28.37;37.16
69796;BME280;57073;45.650;9.612;2023-07-02T15:44:22;98571.66;;;28.64;37.42
69796;BME280;57073;45.650;9.612;2023-07-02T15:49:24;98562.84;;;28.55;37.78
69796;BME280;57073;45.650;9.612;2023-07-02T15:54:24;98557.75;;;28.33;37.77
69796;BME280;57073;45.650;9.612;2023-07-02T15:59:25;98555.50;;;28.43;37.38
69796;BME280;57073;45.650;9.612;2023-07-02T16:04:26;98559.22;;;28.27;36.74
69796;BME280;57073;45.650;9.612;2023-07-02T16:09:26;98554.25;;;28.37;36.29
69796;BME280;57073;45.650;9.612;2023-07-02T16:14:27;98559.16;;;28.20;35.89
69796;BME280;57073;45.650;9.612;2023-07-02T16:19:27;98558.91;;;28.32;36.62
69796;BME280;57073;45.650;9.612;2023-07-02T16:24:31;98556.44;;;28.24;35.08
69796;BME280;57073;45.650;9.612;2023-07-02T16:29:31;98558.06;;;28.28;35.34
69796;BME280;57073;45.650;9.612;2023-07-02T16:34:32;98562.09;;;28.34;34.81
69796;BME280;57073;45.650;9.612;2023-07-02T16:39:33;98566.66;;;28.20;35.16
69796;BME280;57073;45.650;9.612;2023-07-02T16:44:33;98576.25;;;28.26;36.32
69796;BME280;57073;45.650;9.612;2023-07-02T16:49:35;98558.03;;;28.25;35.84
69796;BME280;57073;45.650;9.612;2023-07-02T16:54:37;98570.97;;;28.17;36.52
69796;BME280;57073;45.650;9.612;2023-07-02T16:59:38;98566.47;;;28.09;35.80
69796;BME280;57073;45.650;9.612;2023-07-02T17:04:38;98566.13;;;28.10;36.59
69796;BME280;57073;45.650;9.612;2023-07-02T17:09:39;98566.00;;;28.03;37.50
69796;BME280;57073;45.650;9.612;2023-07-02T17:14:44;98568.78;;;28.03;37.02
69796;BME280;57073;45.650;9.612;2023-07-02T17:19:47;98559.56;;;27.95;36.99
69796;BME280;57073;45.650;9.612;2023-07-02T17:24:49;98558.78;;;27.95;37.46
69796;BME280;57073;45.650;9.612;2023-07-02T17:29:52;98567.66;;;27.85;38.22
69796;BME280;57073;45.650;9.612;2023-07-02T17:34:53;98556.91;;;27.80;37.90
69796;BME280;57073;45.650;9.612;2023-07-02T17:39:54;98556.94;;;27.83;37.78
69796;BME280;57073;45.650;9.612;2023-07-02T17:44:55;98554.59;;;27.85;37.63
69796;BME280;57073;45.650;9.612;2023-07-02T17:49:59;98561.28;;;27.81;37.92
69796;BME280;57073;45.650;9.612;2023-07-02T17:55:00;98568.34;;;27.78;37.94
69796;BME280;57073;45.650;9.612;2023-07-02T18:00:00;98567.00;;;27.68;38.29
69796;BME280;57073;45.650;9.612;2023-07-02T18:05:01;98568.66;;;27.73;38.20
69796;BME280;57073;45.650;9.612;2023-07-02T18:10:01;98565.66;;;27.58;38.59
69796;BME280;57073;45.650;9.612;2023-07-02T18:15:02;98561.28;;;27.57;38.80
69796;BME280;57073;45.650;9.612;2023-07-02T18:20:03;98572.16;;;27.47;38.65
69796;BME280;57073;45.650;9.612;2023-07-02T18:25:04;98563.25;;;27.57;38.73
69796;BME280;57073;45.650;9.612;2023-07-02T18:30:05;98566.56;;;27.43;39.15
69796;BME280;57073;45.650;9.612;2023-07-02T18:35:06;98565.06;;;27.49;38.86
69796;BME280;57073;45.650;9.612;2023-07-02T18:40:08;98558.75;;;27.49;39.06
69796;BME280;57073;45.650;9.612;2023-07-02T18:45:09;98564.34;;;27.52;39.33
69796;BME280;57073;45.650;9.612;2023-07-02T18:50:11;98565.34;;;27.41;39.80
69796;BME280;57073;45.650;9.612;2023-07-02T18:55:13;98567.41;;;27.47;39.55
69796;BME280;57073;45.650;9.612;2023-07-02T19:00:14;98563.28;;;27.37;39.99
69796;BME280;57073;45.650;9.612;2023-07-02T19:05:16;98566.25;;;27.29;40.31
69796;BME280;57073;45.650;9.612;2023-07-02T19:10:17;98576.13;;;27.26;40.17
69796;BME280;57073;45.650;9.612;2023-07-02T19:15:18;98574.50;;;27.25;40.50
69796;BME280;57073;45.650;9.612;2023-07-02T19:20:18;98585.00;;;27.16;40.93
69796;BME280;57073;45.650;9.612;2023-07-02T19:25:20;98587.47;;;27.01;41.38
69796;BME280;57073;45.650;9.612;2023-07-02T19:30:20;98594.34;;;27.08;41.40
69796;BME280;57073;45.650;9.612;2023-07-02T19:35:21;98608.69;;;27.13;41.15
69796;BME280;57073;45.650;9.612;2023-07-02T19:40:22;98620.41;;;27.07;41.93
69796;BME280;57073;45.650;9.612;2023-07-02T19:45:24;98624.91;;;26.95;42.10
69796;BME280;57073;45.650;9.612;2023-07-02T19:50:25;98632.69;;;26.90;42.11
69796;BME280;57073;45.650;9.612;2023-07-02T19:55:25;98648.91;;;26.91;42.71
69796;BME280;57073;45.650;9.612;2023-07-02T20:00:26;98643.75;;;26.90;42.41
69796;BME280;57073;45.650;9.612;2023-07-02T20:05:26;98650.28;;;26.66;44.45
69796;BME280;57073;45.650;9.612;2023-07-02T20:10:27;98657.44;;;26.67;44.65
69796;BME280;57073;45.650;9.612;2023-07-02T20:15:27;98673.00;;;26.55;45.65
69796;BME280;57073;45.650;9.612;2023-07-02T20:20:28;98678.34;;;26.48;46.89
69796;BME280;57073;45.650;9.612;2023-07-02T20:25:31;98699.47;;;26.40;46.71
69796;BME280;57073;45.650;9.612;2023-07-02T20:30:35;98695.75;;;26.33;46.48
69796;BME280;57073;45.650;9.612;2023-07-02T20:35:42;98704.94;;;26.21;46.76
69796;BME280;57073;45.650;9.612;2023-07-02T20:40:43;98705.81;;;26.25;46.28
69796;BME280;57073;45.650;9.612;2023-07-02T20:45:43;98713.22;;;26.21;46.62
69796;BME280;57073;45.650;9.612;2023-07-02T20:50:44;98712.91;;;26.10;46.89
69796;BME280;57073;45.650;9.612;2023-07-02T21:01:00;98728.28;;;25.95;47.48
69796;BME280;57073;45.650;9.612;2023-07-02T21:06:08;98730.41;;;25.86;47.95
69796;BME280;57073;45.650;9.612;2023-07-02T21:11:09;98725.16;;;25.81;47.92
69796;BME280;57073;45.650;9.612;2023-07-02T21:16:10;98724.31;;;25.64;48.20
69796;BME280;57073;45.650;9.612;2023-07-02T21:21:10;98735.72;;;25.51;49.14
69796;BME280;57073;45.650;9.612;2023-07-02T21:26:11;98739.06;;;25.56;48.54
69796;BME280;57073;45.650;9.612;2023-07-02T21:31:12;98735.53;;;25.43;48.09
69796;BME280;57073;45.650;9.612;2023-07-02T21:36:13;98737.41;;;25.27;48.87
69796;BME280;57073;45.650;9.612;2023-07-02T21:41:15;98738.34;;;25.19;48.82
69796;BME280;57073;45.650;9.612;2023-07-02T21:46:17;98739.75;;;25.13;48.60
69796;BME280;57073;45.650;9.612;2023-07-02T21:51:18;98741.25;;;24.98;49.08
69796;BME280;57073;45.650;9.612;2023-07-02T21:56:19;98745.25;;;24.88;49.37
69796;BME280;57073;45.650;9.612;2023-07-02T22:01:22;98748.13;;;24.79;49.33
69796;BME280;57073;45.650;9.612;2023-07-02T22:06:23;98751.25;;;24.78;49.85
69796;BME280;57073;45.650;9.612;2023-07-02T22:11:23;98757.31;;;24.59;50.29
69796;BME280;57073;45.650;9.612;2023-07-02T22:16:25;98749.84;;;24.59;50.26
69796;BME280;57073;45.650;9.612;2023-07-02T22:21:25;98754.56;;;24.46;50.75
69796;BME280;57073;45.650;9.612;2023-07-02T22:26:27;98751.00;;;24.46;50.04
69796;BME280;57073;45.650;9.612;2023-07-02T22:31:27;98758.34;;;24.42;49.93
69796;BME280;57073;45.650;9.612;2023-07-02T22:36:29;98756.94;;;24.35;50.66
69796;BME280;57073;45.650;9.612;2023-07-02T22:41:29;98762.47;;;24.35;51.12
69796;BME280;57073;45.650;9.612;2023-07-02T22:46:30;98764.28;;;24.31;50.94
69796;BME280;57073;45.650;9.612;2023-07-02T22:51:32;98758.16;;;24.26;50.50
69796;BME280;57073;45.650;9.612;2023-07-02T22:56:32;98752.28;;;24.15;50.89
69796;BME280;57073;45.650;9.612;2023-07-02T23:01:33;98763.53;;;24.10;51.54
69796;BME280;57073;45.650;9.612;2023-07-02T23:06:33;98751.59;;;24.06;51.27
69796;BME280;57073;45.650;9.612;2023-07-02T23:11:34;98751.66;;;23.97;51.85
69796;BME280;57073;45.650;9.612;2023-07-02T23:16:34;98750.81;;;23.84;52.38
69796;BME280;57073;45.650;9.612;2023-07-02T23:21:35;98748.66;;;23.90;52.08
69796;BME280;57073;45.650;9.612;2023-07-02T23:26:35;98753.13;;;23.82;51.92
69796;BME280;57073;45.650;9.612;2023-07-02T23:31:38;98754.47;;;23.76;52.82
69796;BME280;57073;45.650;9.612;2023-07-02T23:36:38;98746.22;;;23.76;52.67
69796;BME280;57073;45.650;9.612;2023-07-02T23:41:39;98744.41;;;23.80;52.06
69796;BME280;57073;45.650;9.612;2023-07-02T23:46:39;98746.22;;;23.76;51.97
69796;BME280;57073;45.650;9.612;2023-07-02T23:51:40;98749.09;;;23.58;51.68
69796;BME280;57073;45.650;9.612;2023-07-02T23:56:40;98744.25;;;23.55;52.61
